createdAt,value
2023-04-18T00:00:07.133Z,99773.98
2023-04-18T00:03:02.332Z,99773.16
2023-04-18T00:05:32.375Z,99768.39
2023-04-18T00:08:00.979Z,99770.11
2023-04-18T00:10:29.424Z,99772.38
2023-04-18T00:12:58.516Z,99759.82
2023-04-18T00:15:27.024Z,99756.10
2023-04-18T00:17:56.982Z,99753.75
2023-04-18T00:20:27.786Z,99756.19
2023-04-18T00:22:56.261Z,99759.56
2023-04-18T00:25:24.632Z,99755.08
2023-04-18T00:27:53.070Z,99747.67
2023-04-18T00:30:21.652Z,99744.42
2023-04-18T00:32:50.041Z,99744.90
2023-04-18T00:35:20.058Z,99743.36
2023-04-18T00:37:48.470Z,99740.11
2023-04-18T00:40:18.005Z,99736.20
2023-04-18T00:42:46.436Z,99733.90
2023-04-18T00:45:15.876Z,99737.63
2023-04-18T00:47:44.356Z,99739.04
2023-04-18T00:50:13.227Z,99741.60
2023-04-18T00:52:44.032Z,99741.73
2023-04-18T00:55:12.621Z,99741.52
2023-04-18T00:57:41.850Z,99745.41
2023-04-18T01:00:10.821Z,99748.28
2023-04-18T01:02:40.181Z,99747.39
2023-04-18T01:05:08.956Z,99747.61
2023-04-18T01:07:40.997Z,99739.92
2023-04-18T01:10:10.524Z,99734.88
2023-04-18T01:12:39.349Z,99737.20
2023-04-18T01:15:08.461Z,99738.15
2023-04-18T01:17:38.686Z,99736.67
2023-04-18T01:20:08.157Z,99740.95
2023-04-18T01:22:37.208Z,99739.73
2023-04-18T01:25:09.321Z,99743.10
2023-04-18T01:27:37.705Z,99739.14
2023-04-18T01:30:06.953Z,99743.09
2023-04-18T01:32:35.759Z,99734.98
2023-04-18T01:35:04.884Z,99733.70
2023-04-18T01:37:35.416Z,99730.83
2023-04-18T01:40:05.093Z,99733.08
2023-04-18T01:42:33.449Z,99735.55
2023-04-18T01:45:01.890Z,99733.61
2023-04-18T01:47:30.507Z,99740.09
2023-04-18T01:49:58.943Z,99737.61
2023-04-18T01:52:30.343Z,99739.31
2023-04-18T01:54:58.856Z,99735.60
2023-04-18T01:57:27.180Z,99726.26
2023-04-18T01:59:55.762Z,99734.04
2023-04-18T02:02:24.583Z,99737.04
2023-04-18T02:04:53.413Z,99732.68
2023-04-18T02:07:21.868Z,99732.48
2023-04-18T02:09:50.184Z,99724.90
2023-04-18T02:12:18.582Z,99727.74
2023-04-18T02:14:54.082Z,99732.97
2023-04-18T02:17:23.848Z,99732.72
2023-04-18T02:19:52.412Z,99729.82
2023-04-18T02:22:20.799Z,99722.48
2023-04-18T02:24:49.184Z,99728.33
2023-04-18T02:27:18.458Z,99730.48
2023-04-18T02:29:46.794Z,99730.27
2023-04-18T02:32:15.303Z,99731.52
2023-04-18T02:34:45.384Z,99730.95
2023-04-18T02:37:13.857Z,99734.45
2023-04-18T02:39:42.317Z,99727.27
2023-04-18T02:42:10.757Z,99731.98
2023-04-18T02:44:39.100Z,99732.63
2023-04-18T02:47:07.541Z,99732.02
2023-04-18T02:49:36.977Z,99727.94
2023-04-18T02:52:05.472Z,99726.72
2023-04-18T02:54:33.842Z,99724.61
2023-04-18T02:57:06.441Z,99721.54
2023-04-18T02:59:54.359Z,99716.32
2023-04-18T03:02:41.611Z,99715.55
2023-04-18T03:05:32.934Z,99716.27
2023-04-18T03:08:03.214Z,99720.20
2023-04-18T03:10:31.761Z,99724.36
2023-04-18T03:13:00.314Z,99716.71
2023-04-18T03:15:31.441Z,99725.63
2023-04-18T03:18:00.130Z,99730.04
2023-04-18T03:20:29.925Z,99723.71
2023-04-18T03:22:58.496Z,99726.00
2023-04-18T03:25:27.606Z,99728.44
2023-04-18T03:27:56.613Z,99729.60
2023-04-18T03:30:26.085Z,99733.31
2023-04-18T03:32:56.408Z,99731.77
2023-04-18T03:35:25.120Z,99731.45
2023-04-18T03:37:53.559Z,99729.84
2023-04-18T03:40:25.944Z,99730.52
2023-04-18T03:42:56.481Z,99732.61
2023-04-18T03:45:24.858Z,99726.52
2023-04-18T03:47:53.548Z,99736.84
2023-04-18T03:50:22.457Z,99733.61
2023-04-18T03:52:51.153Z,99732.14
2023-04-18T03:55:19.989Z,99732.17
2023-04-18T03:57:48.485Z,99730.52
2023-04-18T04:00:23.524Z,99734.48
2023-04-18T04:02:55.838Z,99732.02
2023-04-18T04:05:24.393Z,99739.75
2023-04-18T04:07:52.951Z,99741.89
2023-04-18T04:10:21.547Z,99742.17
2023-04-18T04:12:50.253Z,99736.56
2023-04-18T04:15:19.058Z,99738.40
2023-04-18T04:17:57.992Z,99746.40
2023-04-18T04:20:26.903Z,99747.81
2023-04-18T04:23:02.377Z,99749.20
2023-04-18T04:25:31.294Z,99749.29
2023-04-18T04:28:03.081Z,99748.77
2023-04-18T04:30:33.881Z,99740.96
2023-04-18T04:33:03.732Z,99741.75
2023-04-18T04:35:32.455Z,99746.08
2023-04-18T04:38:01.881Z,99752.80
2023-04-18T04:40:35.655Z,99761.46
2023-04-18T04:43:12.936Z,99761.30
2023-04-18T04:45:45.503Z,99765.10
2023-04-18T04:48:13.993Z,99772.63
2023-04-18T04:50:51.572Z,99774.23
2023-04-18T04:53:20.094Z,99777.02
2023-04-18T04:55:48.676Z,99775.79
2023-04-18T04:58:18.232Z,99781.59
2023-04-18T05:01:18.679Z,99781.72
2023-04-18T05:03:47.510Z,99774.80
2023-04-18T05:06:20.834Z,99778.59
2023-04-18T05:08:50.208Z,99781.73
2023-04-18T05:11:18.704Z,99786.21
2023-04-18T05:13:47.048Z,99782.95
2023-04-18T05:16:15.469Z,99780.31
2023-04-18T05:18:43.889Z,99777.66
2023-04-18T05:21:12.223Z,99778.27
2023-04-18T05:23:40.789Z,99777.39
2023-04-18T05:26:11.009Z,99779.59
2023-04-18T05:28:39.394Z,99777.52
2023-04-18T05:31:07.866Z,99771.90
2023-04-18T05:33:36.290Z,99765.76
2023-04-18T05:36:04.954Z,99778.23
2023-04-18T05:38:33.405Z,99779.23
2023-04-18T05:41:03.284Z,99779.34
2023-04-18T05:43:31.743Z,99781.60
2023-04-18T05:46:00.201Z,99780.89
2023-04-18T05:48:28.687Z,99783.34
2023-04-18T05:50:58.132Z,99784.55
2023-04-18T05:53:26.570Z,99786.90
2023-04-18T05:55:55.389Z,99788.82
2023-04-18T05:58:23.816Z,99789.94
2023-04-18T06:00:53.571Z,99790.23
2023-04-18T06:03:21.984Z,99790.48
2023-04-18T06:05:50.688Z,99790.33
2023-04-18T06:08:19.167Z,99789.78
2023-04-18T06:10:47.552Z,99794.04
2023-04-18T06:13:15.910Z,99794.40
2023-04-18T06:15:44.402Z,99792.97
2023-04-18T06:18:13.415Z,99788.30
2023-04-18T06:20:44.269Z,99788.66
2023-04-18T06:23:12.739Z,99790.68
2023-04-18T06:25:44.038Z,99791.58
2023-04-18T06:28:12.478Z,99795.19
2023-04-18T06:30:40.859Z,99795.56
2023-04-18T06:33:11.990Z,99788.67
2023-04-18T06:35:40.514Z,99793.80
2023-04-18T06:38:10.816Z,99789.64
2023-04-18T06:40:39.321Z,99794.62
2023-04-18T06:43:07.874Z,99799.85
2023-04-18T06:45:36.325Z,99798.23
2023-04-18T06:48:05.716Z,99798.82
2023-04-18T06:50:34.188Z,99800.41
2023-04-18T06:53:02.823Z,99801.63
2023-04-18T06:55:31.263Z,99801.45
2023-04-18T06:58:00.657Z,99801.78
2023-04-18T07:00:29.105Z,99801.06
2023-04-18T07:02:57.584Z,99804.02
2023-04-18T07:05:26.304Z,99806.98
2023-04-18T07:07:54.753Z,99808.21
2023-04-18T07:10:23.214Z,99808.75
2023-04-18T07:12:51.535Z,99802.52
2023-04-18T07:15:19.926Z,99809.98
2023-04-18T07:17:48.812Z,99812.31
2023-04-18T07:20:17.594Z,99809.35
2023-04-18T07:22:46.294Z,99812.48
2023-04-18T07:25:14.650Z,99812.77
2023-04-18T07:27:42.986Z,99815.48
2023-04-18T07:30:13.486Z,99817.92
2023-04-18T07:32:42.312Z,99811.09
2023-04-18T07:35:10.843Z,99820.51
2023-04-18T07:37:39.284Z,99823.05
2023-04-18T07:40:09.979Z,99822.17
2023-04-18T07:42:40.108Z,99816.57
2023-04-18T07:45:08.853Z,99824.89
2023-04-18T07:47:37.262Z,99826.33
2023-04-18T07:50:06.229Z,99825.45
2023-04-18T07:52:34.910Z,99825.98
2023-04-18T07:55:03.763Z,99824.13
2023-04-18T07:57:32.334Z,99827.80
2023-04-18T08:00:00.712Z,99827.89
2023-04-18T08:02:29.305Z,99820.77
2023-04-18T08:04:58.836Z,99825.58
2023-04-18T08:07:27.288Z,99827.29
2023-04-18T08:09:55.679Z,99833.16
2023-04-18T08:12:24.053Z,99831.59
2023-04-18T08:14:52.424Z,99833.02
2023-04-18T08:17:21.054Z,99840.02
2023-04-18T08:19:49.479Z,99830.00
2023-04-18T08:22:17.853Z,99839.77
2023-04-18T08:24:57.225Z,99839.15
2023-04-18T08:27:32.303Z,99841.30
2023-04-18T08:30:01.207Z,99847.48
2023-04-18T08:32:29.651Z,99849.22
2023-04-18T08:34:58.035Z,99844.18
2023-04-18T08:37:28.127Z,99851.33
2023-04-18T08:39:58.084Z,99853.10
2023-04-18T08:42:26.536Z,99848.89
2023-04-18T08:44:56.210Z,99850.33
2023-04-18T08:47:24.586Z,99854.20
2023-04-18T08:49:53.844Z,99854.27
2023-04-18T08:52:23.271Z,99853.17
2023-04-18T08:54:52.136Z,99857.39
2023-04-18T08:57:32.547Z,99857.12
2023-04-18T09:00:08.539Z,99858.27
2023-04-18T09:02:47.225Z,99858.69
2023-04-18T09:05:19.221Z,99850.44
2023-04-18T09:07:53.386Z,99856.54
2023-04-18T09:10:35.143Z,99855.23
2023-04-18T09:13:04.571Z,99859.02
2023-04-18T09:15:33.224Z,99859.43
2023-04-18T09:18:03.402Z,99851.31
2023-04-18T09:20:42.378Z,99858.63
2023-04-18T09:23:14.910Z,99862.34
2023-04-18T09:25:46.969Z,99860.29
2023-04-18T09:28:29.215Z,99856.80
2023-04-18T09:31:15.849Z,99858.63
2023-04-18T09:33:57.106Z,99863.67
2023-04-18T09:36:29.064Z,99860.73
2023-04-18T09:38:57.587Z,99859.95
2023-04-18T09:41:25.943Z,99856.58
2023-04-18T09:44:15.030Z,99859.73
2023-04-18T09:46:47.091Z,99864.08
2023-04-18T09:49:20.221Z,99865.08
2023-04-18T09:51:50.676Z,99863.89
2023-04-18T09:54:20.830Z,99861.76
2023-04-18T09:56:51.136Z,99861.10
2023-04-18T10:00:10.804Z,99865.51
2023-04-18T10:02:51.661Z,99863.70
2023-04-18T10:05:21.610Z,99861.06
2023-04-18T10:07:51.134Z,99860.87
2023-04-18T10:10:19.731Z,99852.30
2023-04-18T10:12:49.200Z,99858.57
2023-04-18T10:15:20.220Z,99856.48
2023-04-18T10:18:03.694Z,99854.83
2023-04-18T10:20:35.383Z,99848.90
2023-04-18T10:23:37.379Z,99850.23
2023-04-18T10:26:10.023Z,99843.46
2023-04-18T10:28:55.183Z,99848.89
2023-04-18T10:31:27.964Z,99841.52
2023-04-18T10:34:05.231Z,99840.34
2023-04-18T10:36:34.287Z,99835.95
2023-04-18T10:39:21.357Z,99832.38
2023-04-18T10:41:51.095Z,99825.98
2023-04-18T10:44:23.073Z,99815.60
2023-04-18T10:46:52.037Z,99818.97
2023-04-18T10:49:23.285Z,99810.66
2023-04-18T10:51:56.282Z,99807.88
2023-04-18T10:54:55.995Z,99801.99
2023-04-18T10:57:25.549Z,99815.74
2023-04-18T10:59:55.068Z,99822.08
2023-04-18T11:02:30.493Z,99829.86
2023-04-18T11:05:00.656Z,99827.13
2023-04-18T11:07:49.032Z,99829.35
2023-04-18T11:10:26.441Z,99828.88
2023-04-18T11:12:55.409Z,99832.30
2023-04-18T11:15:25.382Z,99833.16
2023-04-18T11:17:58.446Z,99829.52
2023-04-18T11:20:27.604Z,99829.61
2023-04-18T11:22:58.711Z,99825.41
2023-04-18T11:25:32.597Z,99822.54
2023-04-18T11:28:02.441Z,99820.41
2023-04-18T11:30:38.775Z,99816.16
2023-04-18T11:33:11.842Z,99820.36
2023-04-18T11:35:47.131Z,99817.48
2023-04-18T11:38:16.401Z,99824.58
2023-04-18T11:40:48.697Z,99824.29
2023-04-18T11:43:25.000Z,99824.36
2023-04-18T11:45:57.777Z,99824.72
2023-04-18T11:48:39.384Z,99823.90
2023-04-18T11:51:28.039Z,99819.43
2023-04-18T11:53:56.375Z,99822.05
2023-04-18T11:56:24.771Z,99820.36
2023-04-18T11:58:53.211Z,99814.35
2023-04-18T12:01:23.280Z,99814.45
2023-04-18T12:04:03.307Z,99812.91
2023-04-18T12:06:48.897Z,99810.10
2023-04-18T12:09:17.711Z,99811.15
2023-04-18T12:11:58.682Z,99816.02
2023-04-18T12:14:27.517Z,99815.75
2023-04-18T12:16:56.542Z,99813.36
2023-04-18T12:19:28.609Z,99811.23
2023-04-18T12:22:01.124Z,99811.02
2023-04-18T12:24:30.154Z,99807.69
2023-04-18T12:26:59.270Z,99810.00
2023-04-18T12:29:28.818Z,99811.77
2023-04-18T12:31:57.406Z,99805.98
2023-04-18T12:34:25.737Z,99812.00
2023-04-18T12:36:54.187Z,99810.63
2023-04-18T12:39:22.643Z,99812.77
2023-04-18T12:41:50.959Z,99810.98
2023-04-18T12:44:19.280Z,99811.27
2023-04-18T12:46:47.865Z,99800.44
2023-04-18T12:49:16.440Z,99800.91
2023-04-18T12:51:44.896Z,99799.58
2023-04-18T12:54:13.514Z,99801.02
2023-04-18T12:56:42.086Z,99799.16
2023-04-18T12:59:10.465Z,99796.17
2023-04-18T13:01:38.901Z,99799.00
2023-04-18T13:04:12.613Z,99793.13
2023-04-18T13:06:41.740Z,99800.40
2023-04-18T13:09:10.612Z,99797.95
2023-04-18T13:11:39.092Z,99801.64
2023-04-18T13:14:07.583Z,99804.67
2023-04-18T13:16:36.082Z,99800.05
2023-04-18T13:19:04.532Z,99801.89
2023-04-18T13:21:32.918Z,99799.48
2023-04-18T13:24:01.395Z,99805.70
2023-04-18T13:26:29.830Z,99805.87
2023-04-18T13:28:58.195Z,99805.84
2023-04-18T13:31:26.603Z,99807.64
2023-04-18T13:33:54.932Z,99808.40
2023-04-18T13:36:24.435Z,99809.05
2023-04-18T13:38:53.406Z,99804.48
2023-04-18T13:41:22.970Z,99805.44
2023-04-18T13:43:51.348Z,99800.58
2023-04-18T13:46:19.936Z,99808.45
2023-04-18T13:48:48.263Z,99807.20
2023-04-18T13:51:16.636Z,99806.44
2023-04-18T13:53:45.163Z,99808.88
2023-04-18T13:56:13.632Z,99810.36
2023-04-18T13:58:41.994Z,99808.34
2023-04-18T14:01:10.756Z,99811.46
2023-04-18T14:03:42.209Z,99810.40
2023-04-18T14:06:12.443Z,99805.26
2023-04-18T14:08:41.154Z,99811.86
2023-04-18T14:11:09.484Z,99801.85
2023-04-18T14:13:37.828Z,99808.02
2023-04-18T14:16:06.836Z,99806.08
2023-04-18T14:18:35.782Z,99805.27
2023-04-18T14:21:04.268Z,99806.21
2023-04-18T14:23:32.767Z,99809.05
2023-04-18T14:26:01.194Z,99806.41
2023-04-18T14:28:29.994Z,99810.79
2023-04-18T14:31:00.195Z,99810.18
2023-04-18T14:33:29.560Z,99812.48
2023-04-18T14:35:57.921Z,99813.52
2023-04-18T14:38:26.600Z,99813.61
2023-04-18T14:40:55.625Z,99811.11
2023-04-18T14:43:24.157Z,99806.25
2023-04-18T14:45:52.549Z,99808.79
2023-04-18T14:48:21.400Z,99810.20
2023-04-18T14:51:00.040Z,99806.98
2023-04-18T14:53:28.564Z,99807.70
2023-04-18T14:55:56.940Z,99804.13
2023-04-18T14:58:25.889Z,99804.10
2023-04-18T15:00:54.561Z,99803.02
2023-04-18T15:03:23.146Z,99802.21
2023-04-18T15:05:53.602Z,99801.38
2023-04-18T15:08:22.567Z,99803.13
2023-04-18T15:10:50.927Z,99801.83
2023-04-18T15:13:19.736Z,99801.01
2023-04-18T15:15:54.697Z,99799.34
2023-04-18T15:18:23.167Z,99808.11
2023-04-18T15:20:51.781Z,99807.16
2023-04-18T15:23:21.060Z,99809.96
2023-04-18T15:25:49.439Z,99812.79
2023-04-18T15:28:19.424Z,99811.73
2023-04-18T15:30:47.944Z,99810.50
2023-04-18T15:33:17.739Z,99805.00
2023-04-18T15:35:49.171Z,99806.58
2023-04-18T15:38:17.497Z,99807.35
2023-04-18T15:40:46.224Z,99802.71
2023-04-18T15:43:15.624Z,99803.55
2023-04-18T15:45:44.838Z,99802.65
2023-04-18T15:48:13.450Z,99801.27
2023-04-18T15:50:42.643Z,99799.06
2023-04-18T15:53:11.205Z,99800.23
2023-04-18T15:55:39.680Z,99798.14
2023-04-18T15:58:08.292Z,99799.94
2023-04-18T16:00:36.748Z,99803.80
2023-04-18T16:03:05.221Z,99803.60
2023-04-18T16:05:33.808Z,99803.66
2023-04-18T16:08:02.775Z,99801.52
2023-04-18T16:10:31.175Z,99801.59
2023-04-18T16:12:59.719Z,99801.64
2023-04-18T16:15:28.363Z,99801.98
2023-04-18T16:17:56.946Z,99800.94
2023-04-18T16:20:27.316Z,99796.11
2023-04-18T16:22:55.800Z,99800.05
2023-04-18T16:25:24.204Z,99796.39
2023-04-18T16:27:52.640Z,99793.16
2023-04-18T16:30:21.185Z,99795.45
2023-04-18T16:32:49.510Z,99793.64
2023-04-18T16:35:18.024Z,99789.55
2023-04-18T16:37:46.356Z,99784.98
2023-04-18T16:40:15.543Z,99791.77
2023-04-18T16:42:43.951Z,99795.00
2023-04-18T16:45:12.328Z,99795.05
2023-04-18T16:47:40.709Z,99795.73
2023-04-18T16:50:09.634Z,99790.80
2023-04-18T16:52:38.041Z,99798.07
2023-04-18T16:55:06.974Z,99801.00
2023-04-18T16:57:35.367Z,99799.23
2023-04-18T17:00:05.263Z,99804.00
2023-04-18T17:02:33.778Z,99805.83
2023-04-18T17:05:02.430Z,99804.29
2023-04-18T17:07:31.007Z,99800.63
2023-04-18T17:09:59.510Z,99800.92
2023-04-18T17:12:28.283Z,99803.56
2023-04-18T17:14:56.762Z,99802.27
2023-04-18T17:17:25.181Z,99806.15
2023-04-18T17:19:53.652Z,99806.39
2023-04-18T17:22:22.131Z,99806.10
2023-04-18T17:24:50.808Z,99804.54
2023-04-18T17:27:19.301Z,99802.73
2023-04-18T17:29:47.737Z,99802.52
2023-04-18T17:32:16.332Z,99803.52
2023-04-18T17:34:44.748Z,99801.42
2023-04-18T17:37:13.160Z,99800.58
2023-04-18T17:39:41.911Z,99803.66
2023-04-18T17:42:10.926Z,99799.19
2023-04-18T17:44:40.106Z,99796.95
2023-04-18T17:47:08.485Z,99796.98
2023-04-18T17:49:36.906Z,99800.02
2023-04-18T17:52:05.531Z,99803.83
2023-04-18T17:54:34.016Z,99807.05
2023-04-18T17:57:02.703Z,99799.94
2023-04-18T17:59:31.049Z,99806.92
2023-04-18T18:01:59.826Z,99805.00
2023-04-18T18:04:28.399Z,99799.30
2023-04-18T18:06:57.733Z,99803.41
2023-04-18T18:09:26.308Z,99800.74
2023-04-18T18:11:56.023Z,99801.98
2023-04-18T18:14:25.251Z,99802.94
2023-04-18T18:16:54.372Z,99799.66
2023-04-18T18:19:22.928Z,99795.45
2023-04-18T18:21:51.439Z,99790.36
2023-04-18T18:24:20.184Z,99786.34
2023-04-18T18:26:51.492Z,99791.20
2023-04-18T18:29:20.599Z,99785.91
2023-04-18T18:31:49.313Z,99788.08
2023-04-18T18:34:18.276Z,99783.08
2023-04-18T18:36:47.745Z,99780.71
2023-04-18T18:39:16.788Z,99779.25
2023-04-18T18:41:45.600Z,99769.27
2023-04-18T18:44:14.001Z,99772.55
2023-04-18T18:46:43.255Z,99772.34
2023-04-18T18:49:11.928Z,99768.58
2023-04-18T18:51:41.193Z,99754.52
2023-04-18T18:54:10.083Z,99761.93
2023-04-18T18:56:40.202Z,99758.15
2023-04-18T18:59:08.683Z,99761.88
2023-04-18T19:01:37.761Z,99762.65
2023-04-18T19:04:06.603Z,99761.78
2023-04-18T19:06:35.466Z,99756.30
2023-04-18T19:09:05.468Z,99757.33
2023-04-18T19:11:33.989Z,99755.79
2023-04-18T19:14:03.201Z,99753.64
2023-04-18T19:16:31.856Z,99755.15
2023-04-18T19:19:00.362Z,99745.98
2023-04-18T19:21:28.847Z,99752.04
2023-04-18T19:23:57.362Z,99751.17
2023-04-18T19:26:25.743Z,99748.24
2023-04-18T19:28:54.769Z,99746.22
2023-04-18T19:31:23.895Z,99743.58
2023-04-18T19:33:52.302Z,99741.66
2023-04-18T19:36:22.587Z,99738.33
2023-04-18T19:38:51.147Z,99735.34
2023-04-18T19:41:19.522Z,99732.55
2023-04-18T19:43:48.716Z,99732.08
2023-04-18T19:46:17.231Z,99729.68
2023-04-18T19:48:45.656Z,99727.86
2023-04-18T19:51:14.645Z,99727.21
2023-04-18T19:53:43.141Z,99725.93
2023-04-18T19:56:13.984Z,99724.23
2023-04-18T19:58:46.892Z,99722.83
2023-04-18T20:01:16.637Z,99723.64
2023-04-18T20:03:45.452Z,99723.35
2023-04-18T20:06:14.125Z,99718.25
2023-04-18T20:08:42.601Z,99714.69
2023-04-18T20:11:11.753Z,99714.95
2023-04-18T20:13:40.550Z,99714.80
2023-04-18T20:16:09.409Z,99713.96
2023-04-18T20:18:39.930Z,99713.66
2023-04-18T20:21:09.437Z,99714.29
2023-04-18T20:23:38.202Z,99709.77
2023-04-18T20:26:06.816Z,99705.00
2023-04-18T20:28:36.502Z,99709.40
2023-04-18T20:31:05.106Z,99701.70
2023-04-18T20:33:33.629Z,99696.72
2023-04-18T20:36:02.152Z,99698.31
2023-04-18T20:38:30.493Z,99696.37
2023-04-18T20:40:59.093Z,99688.08
2023-04-18T20:43:28.214Z,99691.73
2023-04-18T20:45:58.900Z,99686.73
2023-04-18T20:48:27.266Z,99679.91
2023-04-18T20:50:55.710Z,99684.30
2023-04-18T20:53:27.281Z,99681.02
2023-04-18T20:55:55.748Z,99682.67
2023-04-18T20:58:24.176Z,99680.12
2023-04-18T21:00:52.645Z,99676.41
2023-04-18T21:03:21.140Z,99675.16
2023-04-18T21:05:49.654Z,99675.88
2023-04-18T21:08:18.085Z,99671.09
2023-04-18T21:10:46.408Z,99662.52
2023-04-18T21:13:15.054Z,99657.80
2023-04-18T21:15:43.507Z,99658.55
2023-04-18T21:18:12.149Z,99655.23
2023-04-18T21:20:40.723Z,99656.64
2023-04-18T21:23:09.124Z,99653.45
2023-04-18T21:25:37.462Z,99651.02
2023-04-18T21:28:06.300Z,99650.66
2023-04-18T21:30:34.650Z,99644.58
2023-04-18T21:33:03.562Z,99644.77
2023-04-18T21:35:32.063Z,99641.35
2023-04-18T21:38:00.528Z,99635.88
2023-04-18T21:40:30.911Z,99639.19
2023-04-18T21:42:59.317Z,99636.38
2023-04-18T21:45:27.895Z,99639.21
2023-04-18T21:47:56.291Z,99629.39
2023-04-18T21:50:24.816Z,99637.16
2023-04-18T21:52:53.228Z,99635.71
2023-04-18T21:55:21.653Z,99636.11
2023-04-18T21:57:50.031Z,99633.63
2023-04-18T22:00:19.340Z,99626.36
2023-04-18T22:02:48.055Z,99621.98
2023-04-18T22:05:16.535Z,99623.59
2023-04-18T22:07:56.863Z,99626.37
2023-04-18T22:10:26.659Z,99624.63
2023-04-18T22:12:55.317Z,99621.27
2023-04-18T22:15:24.408Z,99608.61
2023-04-18T22:17:54.349Z,99612.99
2023-04-18T22:20:23.491Z,99616.80
2023-04-18T22:22:52.245Z,99614.73
2023-04-18T22:25:20.583Z,99609.66
2023-04-18T22:27:49.022Z,99612.48
2023-04-18T22:30:18.111Z,99610.23
2023-04-18T22:32:46.928Z,99609.46
2023-04-18T22:35:16.097Z,99607.33
2023-04-18T22:37:44.492Z,99599.64
2023-04-18T22:40:13.445Z,99596.08
2023-04-18T22:42:41.906Z,99592.17
2023-04-18T22:45:11.013Z,99588.79
2023-04-18T22:47:39.585Z,99590.48
2023-04-18T22:50:08.770Z,99586.91
2023-04-18T22:52:37.108Z,99579.92
2023-04-18T22:55:05.834Z,99573.92
2023-04-18T22:57:34.180Z,99573.30
2023-04-18T23:00:04.401Z,99565.30
2023-04-18T23:02:33.268Z,99558.62
2023-04-18T23:05:02.936Z,99552.46
2023-04-18T23:07:31.419Z,99544.44
2023-04-18T23:09:59.816Z,99540.81
2023-04-18T23:12:28.394Z,99541.14
2023-04-18T23:14:56.726Z,99537.58
2023-04-18T23:17:25.187Z,99535.85
2023-04-18T23:19:53.646Z,99539.52
2023-04-18T23:22:24.306Z,99534.72
2023-04-18T23:24:52.763Z,99540.16
2023-04-18T23:27:21.251Z,99538.86
2023-04-18T23:29:49.609Z,99532.50
2023-04-18T23:32:17.946Z,99531.85
2023-04-18T23:34:46.551Z,99524.90
2023-04-18T23:37:14.927Z,99521.52
2023-04-18T23:39:43.312Z,99515.56
2023-04-18T23:42:11.729Z,99512.59
2023-04-18T23:44:40.061Z,99504.53
2023-04-18T23:47:08.592Z,99504.76
2023-04-18T23:49:37.005Z,99506.63
2023-04-18T23:52:05.497Z,99510.14
2023-04-18T23:54:33.844Z,99507.65
2023-04-18T23:57:02.248Z,99506.27
2023-04-18T23:59:30.571Z,99504.96
